sensor_id;sensor_type;location;lat;lon;timestamp;P1;durP1;ratioP1;P2;durP2;ratioP2
73515;SDS011;61763;51.416;5.442;2023-10-31T00:01:46;12.52;;;4.63;;
73515;SDS011;61763;51.416;5.442;2023-10-31T00:04:14;10.80;;;5.00;;
73515;SDS011;61763;51.416;5.442;2023-10-31T00:06:40;10.65;;;4.88;;
73515;SDS011;61763;51.416;5.442;2023-10-31T00:09:06;9.80;;;4.75;;
73515;SDS011;61763;51.416;5.442;2023-10-31T00:11:32;10.18;;;4.88;;
73515;SDS011;61763;51.416;5.442;2023-10-31T00:13:57;8.32;;;3.95;;
73515;SDS011;61763;51.416;5.442;2023-10-31T00:16:22;8.32;;;3.78;;
73515;SDS011;61763;51.416;5.442;2023-10-31T00:18:48;7.50;;;3.08;;
73515;SDS011;61763;51.416;5.442;2023-10-31T00:21:13;5.93;;;2.65;;
73515;SDS011;61763;51.416;5.442;2023-10-31T00:23:43;4.80;;;2.35;;
73515;SDS011;61763;51.416;5.442;2023-10-31T00:26:09;5.25;;;2.25;;
73515;SDS011;61763;51.416;5.442;2023-10-31T00:28:35;7.78;;;2.33;;
73515;SDS011;61763;51.416;5.442;2023-10-31T00:31:00;6.47;;;2.25;;
73515;SDS011;61763;51.416;5.442;2023-10-31T00:33:25;5.05;;;2.10;;
73515;SDS011;61763;51.416;5.442;2023-10-31T00:35:52;7.63;;;2.22;;
73515;SDS011;61763;51.416;5.442;2023-10-31T00:38:17;8.48;;;2.05;;
73515;SDS011;61763;51.416;5.442;2023-10-31T00:40:43;4.70;;;1.52;;
73515;SDS011;61763;51.416;5.442;2023-10-31T00:43:08;6.88;;;1.63;;
73515;SDS011;61763;51.416;5.442;2023-10-31T00:45:33;7.82;;;2.40;;
73515;SDS011;61763;51.416;5.442;2023-10-31T00:47:59;5.78;;;1.67;;
73515;SDS011;61763;51.416;5.442;2023-10-31T00:50:24;10.68;;;2.95;;
73515;SDS011;61763;51.416;5.442;2023-10-31T00:52:49;11.45;;;3.45;;
73515;SDS011;61763;51.416;5.442;2023-10-31T00:55:15;11.50;;;3.55;;
73515;SDS011;61763;51.416;5.442;2023-10-31T00:57:41;14.45;;;5.32;;
73515;SDS011;61763;51.416;5.442;2023-10-31T01:00:09;15.73;;;5.50;;
73515;SDS011;61763;51.416;5.442;2023-10-31T01:02:37;17.13;;;6.38;;
73515;SDS011;61763;51.416;5.442;2023-10-31T01:05:02;17.33;;;5.90;;
73515;SDS011;61763;51.416;5.442;2023-10-31T01:07:27;16.45;;;6.45;;
73515;SDS011;61763;51.416;5.442;2023-10-31T01:09:53;19.38;;;7.45;;
73515;SDS011;61763;51.416;5.442;2023-10-31T01:12:18;20.73;;;8.68;;
73515;SDS011;61763;51.416;5.442;2023-10-31T01:14:43;21.27;;;9.38;;
73515;SDS011;61763;51.416;5.442;2023-10-31T01:17:10;23.58;;;9.45;;
73515;SDS011;61763;51.416;5.442;2023-10-31T01:19:35;19.70;;;9.38;;
73515;SDS011;61763;51.416;5.442;2023-10-31T01:22:01;26.17;;;10.55;;
73515;SDS011;61763;51.416;5.442;2023-10-31T01:24:26;26.83;;;9.32;;
73515;SDS011;61763;51.416;5.442;2023-10-31T01:26:52;23.20;;;10.20;;
73515;SDS011;61763;51.416;5.442;2023-10-31T01:29:17;25.98;;;9.88;;
73515;SDS011;61763;51.416;5.442;2023-10-31T01:31:43;25.77;;;10.20;;
73515;SDS011;61763;51.416;5.442;2023-10-31T01:34:08;22.98;;;8.15;;
73515;SDS011;61763;51.416;5.442;2023-10-31T01:36:34;29.40;;;10.65;;
73515;SDS011;61763;51.416;5.442;2023-10-31T01:38:59;28.52;;;11.50;;
73515;SDS011;61763;51.416;5.442;2023-10-31T01:41:26;26.98;;;10.48;;
73515;SDS011;61763;51.416;5.442;2023-10-31T01:43:51;22.40;;;9.45;;
73515;SDS011;61763;51.416;5.442;2023-10-31T01:46:17;23.38;;;9.88;;
73515;SDS011;61763;51.416;5.442;2023-10-31T01:48:42;25.23;;;10.23;;
73515;SDS011;61763;51.416;5.442;2023-10-31T01:51:08;26.88;;;10.30;;
73515;SDS011;61763;51.416;5.442;2023-10-31T01:53:35;26.30;;;9.65;;
73515;SDS011;61763;51.416;5.442;2023-10-31T01:56:01;25.80;;;10.20;;
73515;SDS011;61763;51.416;5.442;2023-10-31T01:58:29;26.20;;;11.20;;
73515;SDS011;61763;51.416;5.442;2023-10-31T02:00:57;24.77;;;9.55;;
73515;SDS011;61763;51.416;5.442;2023-10-31T02:03:24;25.40;;;10.43;;
73515;SDS011;61763;51.416;5.442;2023-10-31T02:05:50;24.20;;;9.77;;
73515;SDS011;61763;51.416;5.442;2023-10-31T02:08:17;25.02;;;9.65;;
73515;SDS011;61763;51.416;5.442;2023-10-31T02:10:42;25.75;;;10.18;;
73515;SDS011;61763;51.416;5.442;2023-10-31T02:13:11;20.70;;;9.85;;
73515;SDS011;61763;51.416;5.442;2023-10-31T02:15:41;26.40;;;10.05;;
73515;SDS011;61763;51.416;5.442;2023-10-31T02:18:08;25.58;;;11.20;;
73515;SDS011;61763;51.416;5.442;2023-10-31T02:20:33;27.45;;;10.32;;
73515;SDS011;61763;51.416;5.442;2023-10-31T02:22:59;26.65;;;10.00;;
73515;SDS011;61763;51.416;5.442;2023-10-31T02:25:25;25.27;;;10.30;;
73515;SDS011;61763;51.416;5.442;2023-10-31T02:27:50;22.52;;;10.60;;
73515;SDS011;61763;51.416;5.442;2023-10-31T02:30:16;25.45;;;11.32;;
73515;SDS011;61763;51.416;5.442;2023-10-31T02:32:42;28.00;;;10.05;;
73515;SDS011;61763;51.416;5.442;2023-10-31T02:35:07;26.98;;;11.57;;
73515;SDS011;61763;51.416;5.442;2023-10-31T02:37:33;28.33;;;10.68;;
73515;SDS011;61763;51.416;5.442;2023-10-31T02:39:59;30.98;;;11.65;;
73515;SDS011;61763;51.416;5.442;2023-10-31T02:42:25;25.42;;;10.43;;
73515;SDS011;61763;51.416;5.442;2023-10-31T02:44:51;26.95;;;11.25;;
73515;SDS011;61763;51.416;5.442;2023-10-31T02:47:16;29.42;;;11.38;;
73515;SDS011;61763;51.416;5.442;2023-10-31T02:49:42;27.60;;;11.13;;
73515;SDS011;61763;51.416;5.442;2023-10-31T02:52:07;30.65;;;11.57;;
73515;SDS011;61763;51.416;5.442;2023-10-31T02:54:33;32.25;;;12.40;;
73515;SDS011;61763;51.416;5.442;2023-10-31T02:56:58;25.38;;;9.93;;
73515;SDS011;61763;51.416;5.442;2023-10-31T02:59:23;28.02;;;10.68;;
73515;SDS011;61763;51.416;5.442;2023-10-31T03:01:49;30.05;;;11.35;;
73515;SDS011;61763;51.416;5.442;2023-10-31T03:04:14;20.33;;;8.02;;
73515;SDS011;61763;51.416;5.442;2023-10-31T03:06:40;25.92;;;10.85;;
73515;SDS011;61763;51.416;5.442;2023-10-31T03:09:06;29.15;;;10.65;;
73515;SDS011;61763;51.416;5.442;2023-10-31T03:11:32;31.38;;;11.05;;
73515;SDS011;61763;51.416;5.442;2023-10-31T03:13:57;29.40;;;10.48;;
73515;SDS011;61763;51.416;5.442;2023-10-31T03:16:23;28.33;;;10.05;;
73515;SDS011;61763;51.416;5.442;2023-10-31T03:18:49;31.55;;;11.25;;
73515;SDS011;61763;51.416;5.442;2023-10-31T03:21:14;26.65;;;10.80;;
73515;SDS011;61763;51.416;5.442;2023-10-31T03:23:41;26.90;;;9.50;;
73515;SDS011;61763;51.416;5.442;2023-10-31T03:26:06;31.13;;;11.82;;
73515;SDS011;61763;51.416;5.442;2023-10-31T03:28:32;27.70;;;10.85;;
73515;SDS011;61763;51.416;5.442;2023-10-31T03:30:57;27.80;;;11.13;;
73515;SDS011;61763;51.416;5.442;2023-10-31T03:33:23;27.73;;;10.50;;
73515;SDS011;61763;51.416;5.442;2023-10-31T03:35:48;26.52;;;11.05;;
73515;SDS011;61763;51.416;5.442;2023-10-31T03:38:14;27.50;;;10.68;;
73515;SDS011;61763;51.416;5.442;2023-10-31T03:40:39;25.17;;;10.45;;
73515;SDS011;61763;51.416;5.442;2023-10-31T03:43:05;27.77;;;10.00;;
73515;SDS011;61763;51.416;5.442;2023-10-31T03:45:30;27.55;;;10.38;;
73515;SDS011;61763;51.416;5.442;2023-10-31T03:47:56;24.40;;;9.63;;
73515;SDS011;61763;51.416;5.442;2023-10-31T03:50:21;28.05;;;10.23;;
73515;SDS011;61763;51.416;5.442;2023-10-31T03:52:47;27.17;;;10.98;;
73515;SDS011;61763;51.416;5.442;2023-10-31T03:55:13;25.63;;;10.25;;
73515;SDS011;61763;51.416;5.442;2023-10-31T03:57:38;21.13;;;10.05;;
73515;SDS011;61763;51.416;5.442;2023-10-31T04:00:04;26.15;;;10.07;;
73515;SDS011;61763;51.416;5.442;2023-10-31T04:02:32;22.00;;;9.80;;
73515;SDS011;61763;51.416;5.442;2023-10-31T04:04:57;24.67;;;9.95;;
73515;SDS011;61763;51.416;5.442;2023-10-31T04:07:23;24.08;;;9.98;;
73515;SDS011;61763;51.416;5.442;2023-10-31T04:09:48;22.20;;;10.15;;
73515;SDS011;61763;51.416;5.442;2023-10-31T04:12:14;23.73;;;10.05;;
73515;SDS011;61763;51.416;5.442;2023-10-31T04:14:39;23.33;;;8.95;;
73515;SDS011;61763;51.416;5.442;2023-10-31T04:17:05;20.02;;;8.95;;
73515;SDS011;61763;51.416;5.442;2023-10-31T04:19:31;18.17;;;8.02;;
73515;SDS011;61763;51.416;5.442;2023-10-31T04:21:56;20.23;;;8.63;;
73515;SDS011;61763;51.416;5.442;2023-10-31T04:24:21;19.35;;;8.82;;
73515;SDS011;61763;51.416;5.442;2023-10-31T04:26:47;18.08;;;7.38;;
73515;SDS011;61763;51.416;5.442;2023-10-31T04:29:12;16.33;;;7.90;;
73515;SDS011;61763;51.416;5.442;2023-10-31T04:31:39;17.25;;;8.13;;
73515;SDS011;61763;51.416;5.442;2023-10-31T04:34:04;18.52;;;8.02;;
73515;SDS011;61763;51.416;5.442;2023-10-31T04:36:29;17.20;;;7.18;;
73515;SDS011;61763;51.416;5.442;2023-10-31T04:38:55;15.80;;;6.95;;
73515;SDS011;61763;51.416;5.442;2023-10-31T04:41:20;17.70;;;7.22;;
73515;SDS011;61763;51.416;5.442;2023-10-31T04:43:45;16.90;;;7.68;;
73515;SDS011;61763;51.416;5.442;2023-10-31T04:46:11;15.82;;;7.65;;
73515;SDS011;61763;51.416;5.442;2023-10-31T04:48:37;16.48;;;7.45;;
73515;SDS011;61763;51.416;5.442;2023-10-31T04:51:02;21.60;;;7.82;;
73515;SDS011;61763;51.416;5.442;2023-10-31T04:53:28;16.05;;;7.47;;
73515;SDS011;61763;51.416;5.442;2023-10-31T04:55:53;20.00;;;8.90;;
73515;SDS011;61763;51.416;5.442;2023-10-31T04:58:19;20.90;;;8.40;;
73515;SDS011;61763;51.416;5.442;2023-10-31T05:00:44;19.02;;;8.13;;
73515;SDS011;61763;51.416;5.442;2023-10-31T05:03:10;19.08;;;8.70;;
73515;SDS011;61763;51.416;5.442;2023-10-31T05:05:35;25.65;;;10.20;;
73515;SDS011;61763;51.416;5.442;2023-10-31T05:08:00;21.58;;;9.88;;
73515;SDS011;61763;51.416;5.442;2023-10-31T05:10:26;22.65;;;8.98;;
73515;SDS011;61763;51.416;5.442;2023-10-31T05:12:51;23.48;;;9.38;;
73515;SDS011;61763;51.416;5.442;2023-10-31T05:15:17;18.73;;;8.27;;
73515;SDS011;61763;51.416;5.442;2023-10-31T05:17:43;19.38;;;8.88;;
73515;SDS011;61763;51.416;5.442;2023-10-31T05:20:08;19.40;;;8.43;;
73515;SDS011;61763;51.416;5.442;2023-10-31T05:22:35;20.83;;;8.95;;
73515;SDS011;61763;51.416;5.442;2023-10-31T05:25:01;17.92;;;8.70;;
73515;SDS011;61763;51.416;5.442;2023-10-31T05:27:27;18.00;;;8.18;;
73515;SDS011;61763;51.416;5.442;2023-10-31T05:29:53;25.23;;;9.65;;
73515;SDS011;61763;51.416;5.442;2023-10-31T05:32:19;20.58;;;8.90;;
73515;SDS011;61763;51.416;5.442;2023-10-31T05:34:44;21.17;;;8.98;;
73515;SDS011;61763;51.416;5.442;2023-10-31T05:37:09;20.45;;;8.82;;
73515;SDS011;61763;51.416;5.442;2023-10-31T05:39:35;18.85;;;8.40;;
73515;SDS011;61763;51.416;5.442;2023-10-31T05:42:01;18.88;;;8.45;;
73515;SDS011;61763;51.416;5.442;2023-10-31T05:44:27;18.55;;;8.23;;
73515;SDS011;61763;51.416;5.442;2023-10-31T05:46:53;20.83;;;8.48;;
73515;SDS011;61763;51.416;5.442;2023-10-31T05:49:19;18.42;;;8.48;;
73515;SDS011;61763;51.416;5.442;2023-10-31T05:51:44;20.77;;;9.65;;
73515;SDS011;61763;51.416;5.442;2023-10-31T05:54:14;16.52;;;7.90;;
73515;SDS011;61763;51.416;5.442;2023-10-31T05:56:40;19.08;;;7.72;;
73515;SDS011;61763;51.416;5.442;2023-10-31T05:59:07;19.80;;;8.98;;
73515;SDS011;61763;51.416;5.442;2023-10-31T06:01:32;17.50;;;7.18;;
73515;SDS011;61763;51.416;5.442;2023-10-31T06:03:58;17.25;;;7.30;;
73515;SDS011;61763;51.416;5.442;2023-10-31T06:06:23;15.70;;;7.80;;
73515;SDS011;61763;51.416;5.442;2023-10-31T06:08:48;17.50;;;7.37;;
73515;SDS011;61763;51.416;5.442;2023-10-31T06:11:14;16.08;;;7.07;;
73515;SDS011;61763;51.416;5.442;2023-10-31T06:13:40;15.55;;;7.45;;
73515;SDS011;61763;51.416;5.442;2023-10-31T06:16:06;18.88;;;8.30;;
73515;SDS011;61763;51.416;5.442;2023-10-31T06:18:32;23.30;;;10.55;;
73515;SDS011;61763;51.416;5.442;2023-10-31T06:20:58;20.75;;;9.57;;
73515;SDS011;61763;51.416;5.442;2023-10-31T06:23:23;25.63;;;10.35;;
73515;SDS011;61763;51.416;5.442;2023-10-31T06:25:50;23.65;;;9.32;;
73515;SDS011;61763;51.416;5.442;2023-10-31T06:28:15;26.38;;;10.13;;
73515;SDS011;61763;51.416;5.442;2023-10-31T06:30:41;22.73;;;9.77;;
73515;SDS011;61763;51.416;5.442;2023-10-31T06:33:06;22.80;;;10.30;;
73515;SDS011;61763;51.416;5.442;2023-10-31T06:35:33;26.17;;;10.60;;
73515;SDS011;61763;51.416;5.442;2023-10-31T06:38:00;23.13;;;9.27;;
73515;SDS011;61763;51.416;5.442;2023-10-31T06:40:26;23.65;;;9.77;;
73515;SDS011;61763;51.416;5.442;2023-10-31T06:42:52;21.30;;;8.90;;
73515;SDS011;61763;51.416;5.442;2023-10-31T06:45:18;21.65;;;9.90;;
73515;SDS011;61763;51.416;5.442;2023-10-31T06:47:44;17.85;;;9.07;;
73515;SDS011;61763;51.416;5.442;2023-10-31T06:50:09;22.92;;;9.70;;
73515;SDS011;61763;51.416;5.442;2023-10-31T06:52:35;18.75;;;8.70;;
73515;SDS011;61763;51.416;5.442;2023-10-31T06:55:01;18.85;;;8.38;;
73515;SDS011;61763;51.416;5.442;2023-10-31T06:57:26;20.83;;;9.45;;
73515;SDS011;61763;51.416;5.442;2023-10-31T06:59:51;19.77;;;8.32;;
73515;SDS011;61763;51.416;5.442;2023-10-31T07:02:17;20.77;;;8.55;;
73515;SDS011;61763;51.416;5.442;2023-10-31T07:04:43;15.88;;;7.93;;
73515;SDS011;61763;51.416;5.442;2023-10-31T07:07:09;17.02;;;6.90;;
73515;SDS011;61763;51.416;5.442;2023-10-31T07:09:35;13.60;;;7.32;;
73515;SDS011;61763;51.416;5.442;2023-10-31T07:12:00;15.13;;;7.00;;
73515;SDS011;61763;51.416;5.442;2023-10-31T07:14:27;11.32;;;6.15;;
73515;SDS011;61763;51.416;5.442;2023-10-31T07:16:52;15.25;;;6.80;;
73515;SDS011;61763;51.416;5.442;2023-10-31T07:19:18;15.50;;;6.82;;
73515;SDS011;61763;51.416;5.442;2023-10-31T07:21:43;13.57;;;6.97;;
73515;SDS011;61763;51.416;5.442;2023-10-31T07:24:09;15.40;;;6.93;;
73515;SDS011;61763;51.416;5.442;2023-10-31T07:26:34;12.75;;;5.97;;
73515;SDS011;61763;51.416;5.442;2023-10-31T07:29:00;13.85;;;6.90;;
73515;SDS011;61763;51.416;5.442;2023-10-31T07:31:26;13.63;;;6.05;;
73515;SDS011;61763;51.416;5.442;2023-10-31T07:33:51;18.25;;;7.35;;
73515;SDS011;61763;51.416;5.442;2023-10-31T07:36:17;17.10;;;7.32;;
73515;SDS011;61763;51.416;5.442;2023-10-31T07:38:42;15.52;;;6.93;;
73515;SDS011;61763;51.416;5.442;2023-10-31T07:41:07;13.55;;;7.10;;
73515;SDS011;61763;51.416;5.442;2023-10-31T07:43:33;18.45;;;8.02;;
73515;SDS011;61763;51.416;5.442;2023-10-31T07:45:58;18.60;;;8.48;;
73515;SDS011;61763;51.416;5.442;2023-10-31T07:48:26;18.10;;;7.72;;
73515;SDS011;61763;51.416;5.442;2023-10-31T07:50:52;17.25;;;8.10;;
73515;SDS011;61763;51.416;5.442;2023-10-31T07:53:17;17.77;;;7.97;;
73515;SDS011;61763;51.416;5.442;2023-10-31T07:55:42;19.63;;;7.78;;
73515;SDS011;61763;51.416;5.442;2023-10-31T07:58:08;16.48;;;8.25;;
73515;SDS011;61763;51.416;5.442;2023-10-31T08:00:34;15.70;;;7.45;;
73515;SDS011;61763;51.416;5.442;2023-10-31T08:03:00;19.48;;;9.07;;
73515;SDS011;61763;51.416;5.442;2023-10-31T08:05:28;18.75;;;9.70;;
73515;SDS011;61763;51.416;5.442;2023-10-31T08:07:53;20.88;;;9.23;;
73515;SDS011;61763;51.416;5.442;2023-10-31T08:10:19;20.13;;;10.25;;
73515;SDS011;61763;51.416;5.442;2023-10-31T08:12:44;17.17;;;8.43;;
73515;SDS011;61763;51.416;5.442;2023-10-31T08:15:09;25.85;;;8.95;;
73515;SDS011;61763;51.416;5.442;2023-10-31T08:17:35;16.83;;;8.18;;
73515;SDS011;61763;51.416;5.442;2023-10-31T08:20:01;18.50;;;8.63;;
73515;SDS011;61763;51.416;5.442;2023-10-31T08:22:28;18.40;;;8.43;;
73515;SDS011;61763;51.416;5.442;2023-10-31T08:24:54;16.38;;;7.15;;
73515;SDS011;61763;51.416;5.442;2023-10-31T08:27:19;23.88;;;9.93;;
73515;SDS011;61763;51.416;5.442;2023-10-31T08:29:44;20.02;;;8.00;;
73515;SDS011;61763;51.416;5.442;2023-10-31T08:32:10;19.60;;;8.15;;
73515;SDS011;61763;51.416;5.442;2023-10-31T08:34:35;18.13;;;7.88;;
73515;SDS011;61763;51.416;5.442;2023-10-31T08:37:01;19.98;;;7.75;;
73515;SDS011;61763;51.416;5.442;2023-10-31T08:39:27;19.00;;;7.32;;
73515;SDS011;61763;51.416;5.442;2023-10-31T08:41:53;20.23;;;7.68;;
73515;SDS011;61763;51.416;5.442;2023-10-31T08:44:19;14.65;;;6.93;;
73515;SDS011;61763;51.416;5.442;2023-10-31T08:46:45;17.50;;;6.53;;
73515;SDS011;61763;51.416;5.442;2023-10-31T08:49:10;13.45;;;5.85;;
73515;SDS011;61763;51.416;5.442;2023-10-31T08:51:36;12.55;;;5.70;;
73515;SDS011;61763;51.416;5.442;2023-10-31T08:54:02;14.68;;;6.15;;
73515;SDS011;61763;51.416;5.442;2023-10-31T08:56:27;15.20;;;5.80;;
73515;SDS011;61763;51.416;5.442;2023-10-31T08:58:53;13.45;;;6.35;;
73515;SDS011;61763;51.416;5.442;2023-10-31T09:01:19;14.52;;;5.65;;
73515;SDS011;61763;51.416;5.442;2023-10-31T09:03:44;13.73;;;6.38;;
73515;SDS011;61763;51.416;5.442;2023-10-31T09:06:10;13.18;;;5.70;;
73515;SDS011;61763;51.416;5.442;2023-10-31T09:08:35;13.90;;;6.13;;
73515;SDS011;61763;51.416;5.442;2023-10-31T09:11:03;14.00;;;5.60;;
73515;SDS011;61763;51.416;5.442;2023-10-31T09:13:29;13.13;;;5.68;;
73515;SDS011;61763;51.416;5.442;2023-10-31T09:15:54;13.32;;;5.78;;
73515;SDS011;61763;51.416;5.442;2023-10-31T09:18:20;11.00;;;4.75;;
73515;SDS011;61763;51.416;5.442;2023-10-31T09:20:45;11.10;;;5.65;;
73515;SDS011;61763;51.416;5.442;2023-10-31T09:23:11;11.15;;;4.97;;
73515;SDS011;61763;51.416;5.442;2023-10-31T09:25:36;12.00;;;4.60;;
73515;SDS011;61763;51.416;5.442;2023-10-31T09:28:02;14.80;;;6.30;;
73515;SDS011;61763;51.416;5.442;2023-10-31T09:30:27;14.15;;;5.10;;
73515;SDS011;61763;51.416;5.442;2023-10-31T09:32:52;12.00;;;5.25;;
73515;SDS011;61763;51.416;5.442;2023-10-31T09:35:18;11.25;;;5.03;;
73515;SDS011;61763;51.416;5.442;2023-10-31T09:37:43;10.75;;;5.53;;
73515;SDS011;61763;51.416;5.442;2023-10-31T09:40:10;14.48;;;6.25;;
73515;SDS011;61763;51.416;5.442;2023-10-31T09:42:36;16.52;;;5.75;;
73515;SDS011;61763;51.416;5.442;2023-10-31T09:45:01;10.63;;;5.22;;
73515;SDS011;61763;51.416;5.442;2023-10-31T09:47:28;14.48;;;5.47;;
73515;SDS011;61763;51.416;5.442;2023-10-31T09:49:55;13.60;;;5.85;;
73515;SDS011;61763;51.416;5.442;2023-10-31T09:52:21;9.10;;;4.25;;
73515;SDS011;61763;51.416;5.442;2023-10-31T09:54:48;14.23;;;5.55;;
73515;SDS011;61763;51.416;5.442;2023-10-31T09:57:15;12.05;;;5.15;;
73515;SDS011;61763;51.416;5.442;2023-10-31T09:59:42;11.68;;;5.00;;
73515;SDS011;61763;51.416;5.442;2023-10-31T10:02:07;9.52;;;4.07;;
73515;SDS011;61763;51.416;5.442;2023-10-31T10:04:32;10.60;;;4.47;;
73515;SDS011;61763;51.416;5.442;2023-10-31T10:09:28;11.40;;;4.75;;
73515;SDS011;61763;51.416;5.442;2023-10-31T10:11:54;10.27;;;4.65;;
73515;SDS011;61763;51.416;5.442;2023-10-31T10:14:22;10.88;;;5.38;;
73515;SDS011;61763;51.416;5.442;2023-10-31T10:19:20;10.88;;;4.35;;
73515;SDS011;61763;51.416;5.442;2023-10-31T10:21:50;10.93;;;5.10;;
73515;SDS011;61763;51.416;5.442;2023-10-31T10:24:17;14.65;;;5.13;;
73515;SDS011;61763;51.416;5.442;2023-10-31T10:26:43;11.98;;;5.45;;
73515;SDS011;61763;51.416;5.442;2023-10-31T10:29:08;11.20;;;5.43;;
73515;SDS011;61763;51.416;5.442;2023-10-31T10:31:34;12.65;;;5.15;;
73515;SDS011;61763;51.416;5.442;2023-10-31T10:33:59;9.70;;;4.43;;
73515;SDS011;61763;51.416;5.442;2023-10-31T10:36:26;12.07;;;5.00;;
73515;SDS011;61763;51.416;5.442;2023-10-31T10:38:54;14.10;;;5.82;;
73515;SDS011;61763;51.416;5.442;2023-10-31T10:41:22;12.40;;;4.38;;
73515;SDS011;61763;51.416;5.442;2023-10-31T10:43:52;10.75;;;4.05;;
73515;SDS011;61763;51.416;5.442;2023-10-31T10:46:20;12.48;;;5.00;;
73515;SDS011;61763;51.416;5.442;2023-10-31T10:48:49;15.55;;;5.70;;
73515;SDS011;61763;51.416;5.442;2023-10-31T10:51:21;10.60;;;4.70;;
73515;SDS011;61763;51.416;5.442;2023-10-31T10:53:49;9.55;;;4.45;;
73515;SDS011;61763;51.416;5.442;2023-10-31T10:56:25;11.43;;;4.60;;
73515;SDS011;61763;51.416;5.442;2023-10-31T11:01:45;9.32;;;4.05;;
73515;SDS011;61763;51.416;5.442;2023-10-31T11:04:13;11.02;;;4.45;;
73515;SDS011;61763;51.416;5.442;2023-10-31T11:06:39;10.48;;;4.90;;
73515;SDS011;61763;51.416;5.442;2023-10-31T11:09:06;11.95;;;4.35;;
73515;SDS011;61763;51.416;5.442;2023-10-31T11:11:33;11.13;;;4.28;;
73515;SDS011;61763;51.416;5.442;2023-10-31T11:14:00;8.57;;;4.05;;
73515;SDS011;61763;51.416;5.442;2023-10-31T11:16:29;9.88;;;3.75;;
73515;SDS011;61763;51.416;5.442;2023-10-31T11:18:59;7.18;;;3.22;;
73515;SDS011;61763;51.416;5.442;2023-10-31T11:21:27;6.93;;;3.33;;
73515;SDS011;61763;51.416;5.442;2023-10-31T11:24:00;7.88;;;2.88;;
73515;SDS011;61763;51.416;5.442;2023-10-31T11:26:26;8.93;;;3.35;;
73515;SDS011;61763;51.416;5.442;2023-10-31T11:29:02;8.68;;;3.08;;
73515;SDS011;61763;51.416;5.442;2023-10-31T11:31:28;7.97;;;3.42;;
73515;SDS011;61763;51.416;5.442;2023-10-31T11:33:54;7.18;;;3.00;;
73515;SDS011;61763;51.416;5.442;2023-10-31T11:36:19;8.68;;;3.03;;
73515;SDS011;61763;51.416;5.442;2023-10-31T11:38:45;7.95;;;2.65;;
73515;SDS011;61763;51.416;5.442;2023-10-31T11:41:10;8.13;;;3.10;;
73515;SDS011;61763;51.416;5.442;2023-10-31T11:46:05;7.40;;;2.40;;
73515;SDS011;61763;51.416;5.442;2023-10-31T11:48:46;7.40;;;2.67;;
73515;SDS011;61763;51.416;5.442;2023-10-31T11:51:13;5.72;;;2.45;;
73515;SDS011;61763;51.416;5.442;2023-10-31T11:53:39;5.75;;;2.15;;
73515;SDS011;61763;51.416;5.442;2023-10-31T11:56:05;5.13;;;1.88;;
73515;SDS011;61763;51.416;5.442;2023-10-31T11:58:31;3.60;;;1.95;;
73515;SDS011;61763;51.416;5.442;2023-10-31T12:01:07;3.83;;;1.40;;
73515;SDS011;61763;51.416;5.442;2023-10-31T12:03:43;4.32;;;1.80;;
73515;SDS011;61763;51.416;5.442;2023-10-31T12:06:15;3.97;;;1.08;;
73515;SDS011;61763;51.416;5.442;2023-10-31T12:08:41;4.57;;;1.65;;
73515;SDS011;61763;51.416;5.442;2023-10-31T12:11:12;3.40;;;1.40;;
73515;SDS011;61763;51.416;5.442;2023-10-31T12:16:16;4.18;;;1.35;;
73515;SDS011;61763;51.416;5.442;2023-10-31T12:18:43;3.42;;;0.98;;
73515;SDS011;61763;51.416;5.442;2023-10-31T12:21:08;4.20;;;1.40;;
73515;SDS011;61763;51.416;5.442;2023-10-31T12:23:35;3.70;;;1.88;;
73515;SDS011;61763;51.416;5.442;2023-10-31T12:26:01;3.22;;;0.98;;
73515;SDS011;61763;51.416;5.442;2023-10-31T12:28:27;3.35;;;0.90;;
73515;SDS011;61763;51.416;5.442;2023-10-31T12:30:54;4.53;;;1.05;;
73515;SDS011;61763;51.416;5.442;2023-10-31T12:33:20;4.20;;;1.25;;
73515;SDS011;61763;51.416;5.442;2023-10-31T12:35:47;6.55;;;0.98;;
73515;SDS011;61763;51.416;5.442;2023-10-31T12:38:13;2.90;;;0.90;;
73515;SDS011;61763;51.416;5.442;2023-10-31T12:40:40;2.53;;;0.75;;
73515;SDS011;61763;51.416;5.442;2023-10-31T12:43:06;3.15;;;0.70;;
73515;SDS011;61763;51.416;5.442;2023-10-31T12:45:32;3.78;;;1.30;;
73515;SDS011;61763;51.416;5.442;2023-10-31T12:48:01;3.92;;;1.65;;
73515;SDS011;61763;51.416;5.442;2023-10-31T12:50:31;4.50;;;1.23;;
73515;SDS011;61763;51.416;5.442;2023-10-31T12:52:58;5.03;;;1.42;;
73515;SDS011;61763;51.416;5.442;2023-10-31T12:55:28;5.22;;;1.20;;
73515;SDS011;61763;51.416;5.442;2023-10-31T12:57:55;4.68;;;0.93;;
73515;SDS011;61763;51.416;5.442;2023-10-31T13:00:21;3.80;;;1.13;;
73515;SDS011;61763;51.416;5.442;2023-10-31T13:03:06;4.03;;;1.35;;
73515;SDS011;61763;51.416;5.442;2023-10-31T13:05:37;3.38;;;0.98;;
73515;SDS011;61763;51.416;5.442;2023-10-31T13:08:08;6.60;;;1.23;;
73515;SDS011;61763;51.416;5.442;2023-10-31T13:10:39;4.75;;;1.08;;
73515;SDS011;61763;51.416;5.442;2023-10-31T13:13:04;4.93;;;1.02;;
73515;SDS011;61763;51.416;5.442;2023-10-31T13:15:30;2.10;;;0.63;;
73515;SDS011;61763;51.416;5.442;2023-10-31T13:17:55;2.58;;;0.70;;
73515;SDS011;61763;51.416;5.442;2023-10-31T13:20:22;2.67;;;0.75;;
73515;SDS011;61763;51.416;5.442;2023-10-31T13:22:48;3.58;;;0.75;;
73515;SDS011;61763;51.416;5.442;2023-10-31T13:25:14;5.65;;;0.57;;
73515;SDS011;61763;51.416;5.442;2023-10-31T13:27:41;2.55;;;0.63;;
73515;SDS011;61763;51.416;5.442;2023-10-31T13:30:08;4.97;;;0.50;;
73515;SDS011;61763;51.416;5.442;2023-10-31T13:32:36;3.88;;;0.60;;
73515;SDS011;61763;51.416;5.442;2023-10-31T13:35:01;3.22;;;1.00;;
73515;SDS011;61763;51.416;5.442;2023-10-31T13:37:27;4.55;;;0.85;;
73515;SDS011;61763;51.416;5.442;2023-10-31T13:39:52;2.17;;;0.88;;
73515;SDS011;61763;51.416;5.442;2023-10-31T13:42:17;2.67;;;0.55;;
73515;SDS011;61763;51.416;5.442;2023-10-31T13:44:43;3.35;;;0.60;;
73515;SDS011;61763;51.416;5.442;2023-10-31T13:47:09;4.55;;;0.70;;
73515;SDS011;61763;51.416;5.442;2023-10-31T13:49:37;4.57;;;0.60;;
73515;SDS011;61763;51.416;5.442;2023-10-31T13:52:03;4.72;;;0.60;;
73515;SDS011;61763;51.416;5.442;2023-10-31T13:54:30;2.72;;;0.68;;
73515;SDS011;61763;51.416;5.442;2023-10-31T13:56:55;8.07;;;0.93;;
73515;SDS011;61763;51.416;5.442;2023-10-31T13:59:20;3.15;;;0.82;;
73515;SDS011;61763;51.416;5.442;2023-10-31T14:01:46;4.50;;;0.65;;
73515;SDS011;61763;51.416;5.442;2023-10-31T14:04:12;4.35;;;0.73;;
73515;SDS011;61763;51.416;5.442;2023-10-31T14:06:40;4.32;;;1.10;;
73515;SDS011;61763;51.416;5.442;2023-10-31T14:09:08;2.97;;;1.10;;
73515;SDS011;61763;51.416;5.442;2023-10-31T14:11:34;5.50;;;1.65;;
73515;SDS011;61763;51.416;5.442;2023-10-31T14:14:00;4.53;;;1.23;;
73515;SDS011;61763;51.416;5.442;2023-10-31T14:16:31;7.68;;;0.82;;
73515;SDS011;61763;51.416;5.442;2023-10-31T14:19:04;2.03;;;0.60;;
73515;SDS011;61763;51.416;5.442;2023-10-31T14:21:30;4.32;;;1.20;;
73515;SDS011;61763;51.416;5.442;2023-10-31T14:23:56;5.15;;;1.23;;
73515;SDS011;61763;51.416;5.442;2023-10-31T14:26:22;2.47;;;0.90;;
73515;SDS011;61763;51.416;5.442;2023-10-31T14:28:48;3.88;;;0.82;;
73515;SDS011;61763;51.416;5.442;2023-10-31T14:31:14;4.82;;;1.48;;
73515;SDS011;61763;51.416;5.442;2023-10-31T14:33:40;6.18;;;1.20;;
73515;SDS011;61763;51.416;5.442;2023-10-31T14:36:06;3.17;;;0.70;;
73515;SDS011;61763;51.416;5.442;2023-10-31T14:38:33;6.57;;;1.17;;
73515;SDS011;61763;51.416;5.442;2023-10-31T14:40:59;6.40;;;1.52;;
73515;SDS011;61763;51.416;5.442;2023-10-31T14:43:24;9.85;;;1.90;;